sensor_id;sensor_type;location;lat;lon;timestamp;temperature;humidity
6496;DHT22;3281;47.658;9.166;2023-04-24T00:00:03;11.50;1.00
6496;DHT22;3281;47.658;9.166;2023-04-24T00:02:31;11.50;1.00
6496;DHT22;3281;47.658;9.166;2023-04-24T00:04:58;11.50;1.00
6496;DHT22;3281;47.658;9.166;2023-04-24T00:07:28;11.40;1.00
6496;DHT22;3281;47.658;9.166;2023-04-24T00:09:56;11.40;1.00
6496;DHT22;3281;47.658;9.166;2023-04-24T00:12:23;11.40;1.00
6496;DHT22;3281;47.658;9.166;2023-04-24T00:14:50;11.40;1.00
6496;DHT22;3281;47.658;9.166;2023-04-24T00:17:16;11.40;1.00
6496;DHT22;3281;47.658;9.166;2023-04-24T00:19:45;11.40;1.00
6496;DHT22;3281;47.658;9.166;2023-04-24T00:22:12;11.50;1.00
6496;DHT22;3281;47.658;9.166;2023-04-24T00:24:40;11.30;1.00
6496;DHT22;3281;47.658;9.166;2023-04-24T00:27:08;11.30;1.00
6496;DHT22;3281;47.658;9.166;2023-04-24T00:29:34;11.40;1.00
6496;DHT22;3281;47.658;9.166;2023-04-24T00:32:01;11.40;1.00
6496;DHT22;3281;47.658;9.166;2023-04-24T00:34:28;11.40;1.00
6496;DHT22;3281;47.658;9.166;2023-04-24T00:36:54;11.40;1.00
6496;DHT22;3281;47.658;9.166;2023-04-24T00:39:21;11.50;1.00
6496;DHT22;3281;47.658;9.166;2023-04-24T00:41:48;11.40;1.00
6496;DHT22;3281;47.658;9.166;2023-04-24T00:44:17;11.50;1.00
6496;DHT22;3281;47.658;9.166;2023-04-24T00:46:44;11.50;1.00
6496;DHT22;3281;47.658;9.166;2023-04-24T00:49:12;11.50;1.00
6496;DHT22;3281;47.658;9.166;2023-04-24T00:51:40;11.40;1.00
6496;DHT22;3281;47.658;9.166;2023-04-24T00:54:10;11.40;1.00
6496;DHT22;3281;47.658;9.166;2023-04-24T00:56:37;11.40;1.00
6496;DHT22;3281;47.658;9.166;2023-04-24T00:59:04;11.50;1.00
6496;DHT22;3281;47.658;9.166;2023-04-24T01:01:32;11.50;1.00
6496;DHT22;3281;47.658;9.166;2023-04-24T01:03:59;11.50;1.00
6496;DHT22;3281;47.658;9.166;2023-04-24T01:06:28;11.40;1.00
6496;DHT22;3281;47.658;9.166;2023-04-24T01:08:57;11.30;1.00
6496;DHT22;3281;47.658;9.166;2023-04-24T01:11:24;11.30;1.00
6496;DHT22;3281;47.658;9.166;2023-04-24T01:13:51;11.30;1.00
6496;DHT22;3281;47.658;9.166;2023-04-24T01:16:18;11.30;1.00
6496;DHT22;3281;47.658;9.166;2023-04-24T01:18:47;11.30;1.00
6496;DHT22;3281;47.658;9.166;2023-04-24T01:21:15;11.30;1.00
6496;DHT22;3281;47.658;9.166;2023-04-24T01:23:44;11.20;1.00
6496;DHT22;3281;47.658;9.166;2023-04-24T01:26:11;11.20;1.00
6496;DHT22;3281;47.658;9.166;2023-04-24T01:28:38;11.20;1.00
6496;DHT22;3281;47.658;9.166;2023-04-24T01:31:05;11.10;1.00
6496;DHT22;3281;47.658;9.166;2023-04-24T01:33:32;11.20;1.00
6496;DHT22;3281;47.658;9.166;2023-04-24T01:35:59;11.20;1.00
6496;DHT22;3281;47.658;9.166;2023-04-24T01:38:26;11.20;1.00
6496;DHT22;3281;47.658;9.166;2023-04-24T01:40:54;11.10;1.00
6496;DHT22;3281;47.658;9.166;2023-04-24T01:43:21;11.10;1.00
6496;DHT22;3281;47.658;9.166;2023-04-24T01:45:48;11.10;1.00
6496;DHT22;3281;47.658;9.166;2023-04-24T01:48:15;11.00;1.00
6496;DHT22;3281;47.658;9.166;2023-04-24T01:50:42;11.00;1.00
6496;DHT22;3281;47.658;9.166;2023-04-24T01:53:09;11.00;1.00
6496;DHT22;3281;47.658;9.166;2023-04-24T01:55:35;10.90;1.00
6496;DHT22;3281;47.658;9.166;2023-04-24T01:58:04;10.90;1.00
6496;DHT22;3281;47.658;9.166;2023-04-24T02:00:30;10.90;1.00
6496;DHT22;3281;47.658;9.166;2023-04-24T02:02:57;10.80;1.00
6496;DHT22;3281;47.658;9.166;2023-04-24T02:05:24;10.90;1.00
6496;DHT22;3281;47.658;9.166;2023-04-24T02:07:50;10.90;1.00
6496;DHT22;3281;47.658;9.166;2023-04-24T02:10:17;10.90;1.00
6496;DHT22;3281;47.658;9.166;2023-04-24T02:12:44;10.90;1.00
6496;DHT22;3281;47.658;9.166;2023-04-24T02:15:12;10.90;1.00
6496;DHT22;3281;47.658;9.166;2023-04-24T02:17:38;10.80;1.00
6496;DHT22;3281;47.658;9.166;2023-04-24T02:20:06;10.80;1.00
6496;DHT22;3281;47.658;9.166;2023-04-24T02:22:33;10.90;1.00
6496;DHT22;3281;47.658;9.166;2023-04-24T02:25:00;10.90;1.00
6496;DHT22;3281;47.658;9.166;2023-04-24T02:27:27;10.80;1.00
6496;DHT22;3281;47.658;9.166;2023-04-24T02:29:53;10.80;1.00
6496;DHT22;3281;47.658;9.166;2023-04-24T02:32:22;10.90;1.00
6496;DHT22;3281;47.658;9.166;2023-04-24T02:34:48;10.80;1.00
6496;DHT22;3281;47.658;9.166;2023-04-24T02:37:15;10.80;1.00
6496;DHT22;3281;47.658;9.166;2023-04-24T02:39:42;10.80;1.00
6496;DHT22;3281;47.658;9.166;2023-04-24T02:42:09;10.70;1.00
6496;DHT22;3281;47.658;9.166;2023-04-24T02:44:36;10.80;1.00
6496;DHT22;3281;47.658;9.166;2023-04-24T02:47:03;10.90;1.00
6496;DHT22;3281;47.658;9.166;2023-04-24T02:49:31;10.80;1.00
6496;DHT22;3281;47.658;9.166;2023-04-24T02:51:58;10.70;1.00
6496;DHT22;3281;47.658;9.166;2023-04-24T02:54:24;10.80;1.00
6496;DHT22;3281;47.658;9.166;2023-04-24T02:56:51;10.70;1.00
6496;DHT22;3281;47.658;9.166;2023-04-24T02:59:18;10.70;1.00
6496;DHT22;3281;47.658;9.166;2023-04-24T03:01:44;10.70;1.00
6496;DHT22;3281;47.658;9.166;2023-04-24T03:04:11;10.80;1.00
6496;DHT22;3281;47.658;9.166;2023-04-24T03:06:39;10.90;1.00
6496;DHT22;3281;47.658;9.166;2023-04-24T03:09:06;10.80;1.00
6496;DHT22;3281;47.658;9.166;2023-04-24T03:11:33;10.90;1.00
6496;DHT22;3281;47.658;9.166;2023-04-24T03:13:59;10.80;1.00
6496;DHT22;3281;47.658;9.166;2023-04-24T03:16:26;10.70;1.00
6496;DHT22;3281;47.658;9.166;2023-04-24T03:18:53;10.70;1.00
6496;DHT22;3281;47.658;9.166;2023-04-24T03:21:19;10.60;1.00
6496;DHT22;3281;47.658;9.166;2023-04-24T03:23:47;10.50;1.00
6496;DHT22;3281;47.658;9.166;2023-04-24T03:26:14;10.50;1.00
6496;DHT22;3281;47.658;9.166;2023-04-24T03:28:41;10.60;1.00
6496;DHT22;3281;47.658;9.166;2023-04-24T03:31:07;10.50;1.00
6496;DHT22;3281;47.658;9.166;2023-04-24T03:33:34;10.50;1.00
6496;DHT22;3281;47.658;9.166;2023-04-24T03:36:01;10.50;1.00
6496;DHT22;3281;47.658;9.166;2023-04-24T03:38:28;10.40;1.00
6496;DHT22;3281;47.658;9.166;2023-04-24T03:40:56;10.40;1.00
6496;DHT22;3281;47.658;9.166;2023-04-24T03:43:22;10.30;1.00
6496;DHT22;3281;47.658;9.166;2023-04-24T03:45:49;10.40;1.00
6496;DHT22;3281;47.658;9.166;2023-04-24T03:48:16;10.40;1.00
6496;DHT22;3281;47.658;9.166;2023-04-24T03:50:42;10.40;1.00
6496;DHT22;3281;47.658;9.166;2023-04-24T03:53:09;10.40;1.00
6496;DHT22;3281;47.658;9.166;2023-04-24T03:55:36;10.40;1.00
6496;DHT22;3281;47.658;9.166;2023-04-24T03:58:04;10.40;1.00
6496;DHT22;3281;47.658;9.166;2023-04-24T04:00:31;10.50;1.00
6496;DHT22;3281;47.658;9.166;2023-04-24T04:02:58;10.50;1.00
6496;DHT22;3281;47.658;9.166;2023-04-24T04:05:25;10.50;1.00
6496;DHT22;3281;47.658;9.166;2023-04-24T04:07:52;10.50;1.00
6496;DHT22;3281;47.658;9.166;2023-04-24T04:10:18;10.50;1.00
6496;DHT22;3281;47.658;9.166;2023-04-24T04:12:45;10.50;1.00
6496;DHT22;3281;47.658;9.166;2023-04-24T04:15:13;10.50;1.00
6496;DHT22;3281;47.658;9.166;2023-04-24T04:17:40;10.60;1.00
6496;DHT22;3281;47.658;9.166;2023-04-24T04:20:07;10.70;1.00
6496;DHT22;3281;47.658;9.166;2023-04-24T04:22:35;10.50;1.00
6496;DHT22;3281;47.658;9.166;2023-04-24T04:25:02;10.50;1.00
6496;DHT22;3281;47.658;9.166;2023-04-24T04:27:29;10.50;1.00
6496;DHT22;3281;47.658;9.166;2023-04-24T04:29:57;10.50;1.00
6496;DHT22;3281;47.658;9.166;2023-04-24T04:32:26;10.50;1.00
6496;DHT22;3281;47.658;9.166;2023-04-24T04:34:52;10.50;1.00
6496;DHT22;3281;47.658;9.166;2023-04-24T04:37:19;10.50;1.00
6496;DHT22;3281;47.658;9.166;2023-04-24T04:39:46;10.60;1.00
6496;DHT22;3281;47.658;9.166;2023-04-24T04:42:13;10.70;1.00
6496;DHT22;3281;47.658;9.166;2023-04-24T04:44:40;10.70;1.00
6496;DHT22;3281;47.658;9.166;2023-04-24T04:47:08;10.70;1.00
6496;DHT22;3281;47.658;9.166;2023-04-24T04:49:37;10.70;1.00
6496;DHT22;3281;47.658;9.166;2023-04-24T04:52:04;10.70;1.00
6496;DHT22;3281;47.658;9.166;2023-04-24T04:54:31;10.60;1.00
6496;DHT22;3281;47.658;9.166;2023-04-24T04:56:58;10.60;1.00
6496;DHT22;3281;47.658;9.166;2023-04-24T04:59:25;10.70;1.00
6496;DHT22;3281;47.658;9.166;2023-04-24T05:01:52;10.80;1.00
6496;DHT22;3281;47.658;9.166;2023-04-24T05:04:19;10.90;1.00
6496;DHT22;3281;47.658;9.166;2023-04-24T05:06:47;10.80;1.00
6496;DHT22;3281;47.658;9.166;2023-04-24T05:09:14;10.80;1.00
6496;DHT22;3281;47.658;9.166;2023-04-24T05:11:40;10.60;1.00
6496;DHT22;3281;47.658;9.166;2023-04-24T05:14:07;10.60;1.00
6496;DHT22;3281;47.658;9.166;2023-04-24T05:16:34;10.60;1.00
6496;DHT22;3281;47.658;9.166;2023-04-24T05:19:02;10.60;1.00
6496;DHT22;3281;47.658;9.166;2023-04-24T05:21:29;10.60;1.00
6496;DHT22;3281;47.658;9.166;2023-04-24T05:23:57;10.50;1.00
6496;DHT22;3281;47.658;9.166;2023-04-24T05:26:24;10.60;1.00
6496;DHT22;3281;47.658;9.166;2023-04-24T05:28:51;10.50;1.00
6496;DHT22;3281;47.658;9.166;2023-04-24T05:31:17;10.40;1.00
6496;DHT22;3281;47.658;9.166;2023-04-24T05:33:44;10.50;1.00
6496;DHT22;3281;47.658;9.166;2023-04-24T05:36:11;10.30;1.00
6496;DHT22;3281;47.658;9.166;2023-04-24T05:38:37;10.40;1.00
6496;DHT22;3281;47.658;9.166;2023-04-24T05:41:05;10.20;1.00
6496;DHT22;3281;47.658;9.166;2023-04-24T05:43:32;10.40;1.00
6496;DHT22;3281;47.658;9.166;2023-04-24T05:45:59;10.30;1.00
6496;DHT22;3281;47.658;9.166;2023-04-24T05:48:25;10.30;1.00
6496;DHT22;3281;47.658;9.166;2023-04-24T05:50:52;10.20;1.00
6496;DHT22;3281;47.658;9.166;2023-04-24T05:53:19;10.30;1.00
6496;DHT22;3281;47.658;9.166;2023-04-24T05:55:46;10.20;1.00
6496;DHT22;3281;47.658;9.166;2023-04-24T05:58:14;10.20;1.00
6496;DHT22;3281;47.658;9.166;2023-04-24T06:00:41;10.30;1.00
6496;DHT22;3281;47.658;9.166;2023-04-24T06:03:09;10.30;1.00
6496;DHT22;3281;47.658;9.166;2023-04-24T06:05:36;10.40;1.00
6496;DHT22;3281;47.658;9.166;2023-04-24T06:08:03;10.40;1.00
6496;DHT22;3281;47.658;9.166;2023-04-24T06:10:30;10.50;1.00
6496;DHT22;3281;47.658;9.166;2023-04-24T06:12:56;10.40;1.00
6496;DHT22;3281;47.658;9.166;2023-04-24T06:15:28;10.40;1.00
6496;DHT22;3281;47.658;9.166;2023-04-24T06:17:55;10.40;1.00
6496;DHT22;3281;47.658;9.166;2023-04-24T06:20:22;10.30;1.00
6496;DHT22;3281;47.658;9.166;2023-04-24T06:22:49;10.40;1.00
6496;DHT22;3281;47.658;9.166;2023-04-24T06:25:16;10.40;1.00
6496;DHT22;3281;47.658;9.166;2023-04-24T06:27:43;10.50;1.00
6496;DHT22;3281;47.658;9.166;2023-04-24T06:30:10;10.50;1.00
6496;DHT22;3281;47.658;9.166;2023-04-24T06:32:39;10.50;1.00
6496;DHT22;3281;47.658;9.166;2023-04-24T06:35:06;10.50;1.00
6496;DHT22;3281;47.658;9.166;2023-04-24T06:37:35;10.50;1.00
6496;DHT22;3281;47.658;9.166;2023-04-24T06:40:02;10.60;1.00
6496;DHT22;3281;47.658;9.166;2023-04-24T06:42:28;10.60;1.00
6496;DHT22;3281;47.658;9.166;2023-04-24T06:44:55;10.70;1.00
6496;DHT22;3281;47.658;9.166;2023-04-24T06:47:22;10.90;1.00
6496;DHT22;3281;47.658;9.166;2023-04-24T06:49:50;10.90;1.00
6496;DHT22;3281;47.658;9.166;2023-04-24T06:52:18;11.00;1.00
6496;DHT22;3281;47.658;9.166;2023-04-24T06:54:45;11.10;1.00
6496;DHT22;3281;47.658;9.166;2023-04-24T06:57:12;11.20;1.00
6496;DHT22;3281;47.658;9.166;2023-04-24T06:59:38;11.40;1.00
6496;DHT22;3281;47.658;9.166;2023-04-24T07:02:05;11.50;1.00
6496;DHT22;3281;47.658;9.166;2023-04-24T07:04:32;11.50;1.00
6496;DHT22;3281;47.658;9.166;2023-04-24T07:07:00;11.50;1.00
6496;DHT22;3281;47.658;9.166;2023-04-24T07:09:26;11.60;1.00
6496;DHT22;3281;47.658;9.166;2023-04-24T07:11:53;11.70;1.00
6496;DHT22;3281;47.658;9.166;2023-04-24T07:14:23;11.60;1.00
6496;DHT22;3281;47.658;9.166;2023-04-24T07:16:49;11.60;1.00
6496;DHT22;3281;47.658;9.166;2023-04-24T07:19:16;11.60;1.00
6496;DHT22;3281;47.658;9.166;2023-04-24T07:21:43;11.70;1.00
6496;DHT22;3281;47.658;9.166;2023-04-24T07:24:11;11.70;1.00
6496;DHT22;3281;47.658;9.166;2023-04-24T07:26:38;11.70;1.00
6496;DHT22;3281;47.658;9.166;2023-04-24T07:29:05;11.70;1.00
6496;DHT22;3281;47.658;9.166;2023-04-24T07:31:32;11.80;1.00
6496;DHT22;3281;47.658;9.166;2023-04-24T07:33:59;12.20;1.00
6496;DHT22;3281;47.658;9.166;2023-04-24T07:36:25;12.20;1.00
6496;DHT22;3281;47.658;9.166;2023-04-24T07:38:54;12.10;1.00
6496;DHT22;3281;47.658;9.166;2023-04-24T07:41:22;12.20;1.00
6496;DHT22;3281;47.658;9.166;2023-04-24T07:43:49;12.00;1.00
6496;DHT22;3281;47.658;9.166;2023-04-24T07:46:16;12.10;1.00
6496;DHT22;3281;47.658;9.166;2023-04-24T07:48:43;12.10;1.00
6496;DHT22;3281;47.658;9.166;2023-04-24T07:51:10;12.20;1.00
6496;DHT22;3281;47.658;9.166;2023-04-24T07:53:38;12.40;1.00
6496;DHT22;3281;47.658;9.166;2023-04-24T07:56:05;12.50;1.00
6496;DHT22;3281;47.658;9.166;2023-04-24T07:58:33;12.90;1.00
6496;DHT22;3281;47.658;9.166;2023-04-24T08:01:00;12.80;1.00
6496;DHT22;3281;47.658;9.166;2023-04-24T08:03:27;12.70;1.00
6496;DHT22;3281;47.658;9.166;2023-04-24T08:05:53;12.40;1.00
6496;DHT22;3281;47.658;9.166;2023-04-24T08:08:21;12.30;1.00
6496;DHT22;3281;47.658;9.166;2023-04-24T08:10:48;12.30;1.00
6496;DHT22;3281;47.658;9.166;2023-04-24T08:13:15;11.90;1.00
6496;DHT22;3281;47.658;9.166;2023-04-24T08:15:43;11.60;1.00
6496;DHT22;3281;47.658;9.166;2023-04-24T08:18:10;11.60;1.00
6496;DHT22;3281;47.658;9.166;2023-04-24T08:20:39;11.50;1.00
6496;DHT22;3281;47.658;9.166;2023-04-24T08:23:05;11.70;1.00
6496;DHT22;3281;47.658;9.166;2023-04-24T08:25:32;11.70;1.00
6496;DHT22;3281;47.658;9.166;2023-04-24T08:28:01;11.20;1.00
6496;DHT22;3281;47.658;9.166;2023-04-24T08:30:28;11.00;1.00
6496;DHT22;3281;47.658;9.166;2023-04-24T08:32:56;10.80;1.00
6496;DHT22;3281;47.658;9.166;2023-04-24T08:35:23;11.00;1.00
6496;DHT22;3281;47.658;9.166;2023-04-24T08:37:51;11.10;1.00
6496;DHT22;3281;47.658;9.166;2023-04-24T08:40:19;11.20;1.00
6496;DHT22;3281;47.658;9.166;2023-04-24T08:42:47;11.10;1.00
6496;DHT22;3281;47.658;9.166;2023-04-24T08:45:15;11.20;1.00
6496;DHT22;3281;47.658;9.166;2023-04-24T08:47:42;11.40;1.00
6496;DHT22;3281;47.658;9.166;2023-04-24T08:50:11;11.50;1.00
6496;DHT22;3281;47.658;9.166;2023-04-24T08:52:38;11.60;1.00
6496;DHT22;3281;47.658;9.166;2023-04-24T08:55:05;11.70;1.00
6496;DHT22;3281;47.658;9.166;2023-04-24T08:57:32;11.90;1.00
6496;DHT22;3281;47.658;9.166;2023-04-24T08:59:59;11.80;1.00
6496;DHT22;3281;47.658;9.166;2023-04-24T09:02:27;12.00;1.00
6496;DHT22;3281;47.658;9.166;2023-04-24T09:04:56;12.00;1.00
6496;DHT22;3281;47.658;9.166;2023-04-24T09:07:24;11.90;1.00
6496;DHT22;3281;47.658;9.166;2023-04-24T09:09:52;11.90;1.00
6496;DHT22;3281;47.658;9.166;2023-04-24T09:12:20;12.00;1.00
6496;DHT22;3281;47.658;9.166;2023-04-24T09:14:48;12.00;1.00
6496;DHT22;3281;47.658;9.166;2023-04-24T09:17:15;12.00;1.00
6496;DHT22;3281;47.658;9.166;2023-04-24T09:19:42;12.10;1.00
6496;DHT22;3281;47.658;9.166;2023-04-24T09:22:09;12.20;1.00
6496;DHT22;3281;47.658;9.166;2023-04-24T09:24:38;12.20;1.00
6496;DHT22;3281;47.658;9.166;2023-04-24T09:27:05;12.30;1.00
6496;DHT22;3281;47.658;9.166;2023-04-24T09:29:32;12.80;1.00
6496;DHT22;3281;47.658;9.166;2023-04-24T09:31:59;12.80;1.00
6496;DHT22;3281;47.658;9.166;2023-04-24T09:34:26;12.60;1.00
6496;DHT22;3281;47.658;9.166;2023-04-24T09:36:54;13.10;1.00
6496;DHT22;3281;47.658;9.166;2023-04-24T09:39:20;14.70;1.00
6496;DHT22;3281;47.658;9.166;2023-04-24T09:41:50;15.20;1.00
6496;DHT22;3281;47.658;9.166;2023-04-24T09:44:18;14.10;1.00
6496;DHT22;3281;47.658;9.166;2023-04-24T09:46:49;13.70;1.00
6496;DHT22;3281;47.658;9.166;2023-04-24T09:49:22;13.10;1.00
6496;DHT22;3281;47.658;9.166;2023-04-24T09:51:48;12.60;1.00
6496;DHT22;3281;47.658;9.166;2023-04-24T09:54:16;12.60;1.00
6496;DHT22;3281;47.658;9.166;2023-04-24T09:56:44;12.60;1.00
6496;DHT22;3281;47.658;9.166;2023-04-24T09:59:13;12.30;1.00
6496;DHT22;3281;47.658;9.166;2023-04-24T10:01:40;12.50;1.00
6496;DHT22;3281;47.658;9.166;2023-04-24T10:04:16;12.80;1.00
6496;DHT22;3281;47.658;9.166;2023-04-24T10:06:43;14.20;1.00
6496;DHT22;3281;47.658;9.166;2023-04-24T10:09:11;14.20;1.00
6496;DHT22;3281;47.658;9.166;2023-04-24T10:11:42;14.20;1.00
6496;DHT22;3281;47.658;9.166;2023-04-24T10:14:09;13.50;1.00
6496;DHT22;3281;47.658;9.166;2023-04-24T10:16:39;13.20;1.00
6496;DHT22;3281;47.658;9.166;2023-04-24T10:19:07;13.50;1.00
6496;DHT22;3281;47.658;9.166;2023-04-24T10:21:34;13.50;1.00
6496;DHT22;3281;47.658;9.166;2023-04-24T10:24:03;13.60;1.00
6496;DHT22;3281;47.658;9.166;2023-04-24T10:26:31;14.10;1.00
6496;DHT22;3281;47.658;9.166;2023-04-24T10:28:59;13.30;1.00
6496;DHT22;3281;47.658;9.166;2023-04-24T10:31:26;13.00;1.00
6496;DHT22;3281;47.658;9.166;2023-04-24T10:33:55;12.80;1.00
6496;DHT22;3281;47.658;9.166;2023-04-24T10:36:23;12.80;1.00
6496;DHT22;3281;47.658;9.166;2023-04-24T10:38:53;12.60;1.00
6496;DHT22;3281;47.658;9.166;2023-04-24T10:41:25;12.70;1.00
6496;DHT22;3281;47.658;9.166;2023-04-24T10:44:04;12.70;1.00
6496;DHT22;3281;47.658;9.166;2023-04-24T10:46:31;12.60;1.00
6496;DHT22;3281;47.658;9.166;2023-04-24T10:48:59;12.60;1.00
6496;DHT22;3281;47.658;9.166;2023-04-24T10:51:45;12.80;1.00
6496;DHT22;3281;47.658;9.166;2023-04-24T10:54:22;12.80;1.00
6496;DHT22;3281;47.658;9.166;2023-04-24T10:56:50;13.60;1.00
6496;DHT22;3281;47.658;9.166;2023-04-24T10:59:24;15.10;1.00
6496;DHT22;3281;47.658;9.166;2023-04-24T11:01:53;15.80;1.00
6496;DHT22;3281;47.658;9.166;2023-04-24T11:04:31;16.80;1.00
6496;DHT22;3281;47.658;9.166;2023-04-24T11:06:58;16.50;1.00
6496;DHT22;3281;47.658;9.166;2023-04-24T11:09:27;15.60;1.00
6496;DHT22;3281;47.658;9.166;2023-04-24T11:12:04;14.80;1.00
6496;DHT22;3281;47.658;9.166;2023-04-24T11:15:00;14.80;1.00
6496;DHT22;3281;47.658;9.166;2023-04-24T11:17:30;14.50;1.00
6496;DHT22;3281;47.658;9.166;2023-04-24T11:20:02;14.40;1.00
6496;DHT22;3281;47.658;9.166;2023-04-24T11:22:33;13.90;1.00
6496;DHT22;3281;47.658;9.166;2023-04-24T11:25:00;14.30;1.00
6496;DHT22;3281;47.658;9.166;2023-04-24T11:27:30;14.50;1.00
6496;DHT22;3281;47.658;9.166;2023-04-24T11:30:03;14.80;1.00
6496;DHT22;3281;47.658;9.166;2023-04-24T11:32:34;14.40;1.00
6496;DHT22;3281;47.658;9.166;2023-04-24T11:35:04;14.10;1.00
6496;DHT22;3281;47.658;9.166;2023-04-24T11:37:35;13.90;1.00
6496;DHT22;3281;47.658;9.166;2023-04-24T11:40:04;13.50;1.00
6496;DHT22;3281;47.658;9.166;2023-04-24T11:42:34;13.30;1.00
6496;DHT22;3281;47.658;9.166;2023-04-24T11:45:00;13.20;1.00
6496;DHT22;3281;47.658;9.166;2023-04-24T11:47:28;13.40;1.00
6496;DHT22;3281;47.658;9.166;2023-04-24T11:49:55;13.70;1.00
6496;DHT22;3281;47.658;9.166;2023-04-24T11:52:23;13.80;1.00
6496;DHT22;3281;47.658;9.166;2023-04-24T11:54:50;13.80;1.00
6496;DHT22;3281;47.658;9.166;2023-04-24T11:57:19;13.60;1.00
6496;DHT22;3281;47.658;9.166;2023-04-24T11:59:46;13.90;1.00
6496;DHT22;3281;47.658;9.166;2023-04-24T12:02:20;13.90;1.00
6496;DHT22;3281;47.658;9.166;2023-04-24T12:04:48;13.70;1.00
6496;DHT22;3281;47.658;9.166;2023-04-24T12:07:14;13.50;1.00
6496;DHT22;3281;47.658;9.166;2023-04-24T12:09:44;13.40;1.00
6496;DHT22;3281;47.658;9.166;2023-04-24T12:12:12;13.20;1.00
6496;DHT22;3281;47.658;9.166;2023-04-24T12:14:52;13.20;1.00
6496;DHT22;3281;47.658;9.166;2023-04-24T12:17:24;13.20;1.00
6496;DHT22;3281;47.658;9.166;2023-04-24T12:19:51;13.60;1.00
6496;DHT22;3281;47.658;9.166;2023-04-24T12:22:18;14.50;1.00
6496;DHT22;3281;47.658;9.166;2023-04-24T12:24:58;14.60;1.00
6496;DHT22;3281;47.658;9.166;2023-04-24T12:27:26;13.90;1.00
6496;DHT22;3281;47.658;9.166;2023-04-24T12:29:53;14.30;1.00
6496;DHT22;3281;47.658;9.166;2023-04-24T12:32:21;14.70;1.00
6496;DHT22;3281;47.658;9.166;2023-04-24T12:34:49;14.50;1.00
6496;DHT22;3281;47.658;9.166;2023-04-24T12:37:16;14.40;1.00
6496;DHT22;3281;47.658;9.166;2023-04-24T12:39:59;14.30;1.00
6496;DHT22;3281;47.658;9.166;2023-04-24T12:42:27;14.10;1.00
6496;DHT22;3281;47.658;9.166;2023-04-24T12:44:56;14.00;1.00
6496;DHT22;3281;47.658;9.166;2023-04-24T12:47:24;13.90;1.00
6496;DHT22;3281;47.658;9.166;2023-04-24T12:49:51;13.90;1.00
6496;DHT22;3281;47.658;9.166;2023-04-24T12:52:18;13.90;1.00
6496;DHT22;3281;47.658;9.166;2023-04-24T12:54:46;13.90;1.00
6496;DHT22;3281;47.658;9.166;2023-04-24T12:57:14;13.80;1.00
6496;DHT22;3281;47.658;9.166;2023-04-24T12:59:41;14.00;1.00
6496;DHT22;3281;47.658;9.166;2023-04-24T13:02:07;14.20;1.00
6496;DHT22;3281;47.658;9.166;2023-04-24T13:04:35;14.20;1.00
6496;DHT22;3281;47.658;9.166;2023-04-24T13:07:02;13.80;1.00
6496;DHT22;3281;47.658;9.166;2023-04-24T13:09:29;14.30;1.00
6496;DHT22;3281;47.658;9.166;2023-04-24T13:11:56;14.30;1.00
6496;DHT22;3281;47.658;9.166;2023-04-24T13:14:24;14.30;1.00
6496;DHT22;3281;47.658;9.166;2023-04-24T13:16:51;14.20;1.00
6496;DHT22;3281;47.658;9.166;2023-04-24T13:19:18;14.10;1.00
6496;DHT22;3281;47.658;9.166;2023-04-24T13:21:45;14.10;1.00
6496;DHT22;3281;47.658;9.166;2023-04-24T13:24:11;14.00;1.00
6496;DHT22;3281;47.658;9.166;2023-04-24T13:26:38;14.70;1.00
6496;DHT22;3281;47.658;9.166;2023-04-24T13:29:05;14.70;1.00
6496;DHT22;3281;47.658;9.166;2023-04-24T13:31:33;15.00;1.00
6496;DHT22;3281;47.658;9.166;2023-04-24T13:34:00;15.20;1.00
6496;DHT22;3281;47.658;9.166;2023-04-24T13:36:27;14.90;1.00
6496;DHT22;3281;47.658;9.166;2023-04-24T13:38:54;15.30;1.00
6496;DHT22;3281;47.658;9.166;2023-04-24T13:41:20;15.20;1.00
6496;DHT22;3281;47.658;9.166;2023-04-24T13:43:47;15.30;1.00
6496;DHT22;3281;47.658;9.166;2023-04-24T13:46:14;15.30;1.00
6496;DHT22;3281;47.658;9.166;2023-04-24T13:48:42;15.50;1.00
6496;DHT22;3281;47.658;9.166;2023-04-24T13:51:08;15.90;1.00
6496;DHT22;3281;47.658;9.166;2023-04-24T13:53:36;15.90;1.00
6496;DHT22;3281;47.658;9.166;2023-04-24T13:56:04;15.70;1.00
6496;DHT22;3281;47.658;9.166;2023-04-24T13:58:31;15.80;1.00
6496;DHT22;3281;47.658;9.166;2023-04-24T14:00:58;15.90;1.00
6496;DHT22;3281;47.658;9.166;2023-04-24T14:03:25;15.40;1.00
6496;DHT22;3281;47.658;9.166;2023-04-24T14:05:53;14.90;1.00
6496;DHT22;3281;47.658;9.166;2023-04-24T14:08:20;15.20;1.00
6496;DHT22;3281;47.658;9.166;2023-04-24T14:10:46;15.90;1.00
6496;DHT22;3281;47.658;9.166;2023-04-24T14:13:13;16.30;1.00
6496;DHT22;3281;47.658;9.166;2023-04-24T14:15:40;16.40;1.00
6496;DHT22;3281;47.658;9.166;2023-04-24T14:18:07;16.30;1.00
6496;DHT22;3281;47.658;9.166;2023-04-24T14:20:34;16.00;1.00
6496;DHT22;3281;47.658;9.166;2023-04-24T14:23:02;15.90;1.00
6496;DHT22;3281;47.658;9.166;2023-04-24T14:25:29;15.60;1.00
6496;DHT22;3281;47.658;9.166;2023-04-24T14:27:56;15.60;1.00
6496;DHT22;3281;47.658;9.166;2023-04-24T14:30:23;15.60;1.00
6496;DHT22;3281;47.658;9.166;2023-04-24T14:32:49;15.10;1.00
6496;DHT22;3281;47.658;9.166;2023-04-24T14:35:16;14.80;1.00
6496;DHT22;3281;47.658;9.166;2023-04-24T14:37:43;14.50;1.00
6496;DHT22;3281;47.658;9.166;2023-04-24T14:40:11;14.20;1.00
6496;DHT22;3281;47.658;9.166;2023-04-24T14:42:38;14.10;1.00
6496;DHT22;3281;47.658;9.166;2023-04-24T14:45:05;14.10;1.00
6496;DHT22;3281;47.658;9.166;2023-04-24T14:47:33;14.30;1.00
6496;DHT22;3281;47.658;9.166;2023-04-24T14:50:00;14.70;1.00
6496;DHT22;3281;47.658;9.166;2023-04-24T14:52:26;14.60;1.00
6496;DHT22;3281;47.658;9.166;2023-04-24T14:54:53;14.60;1.00
6496;DHT22;3281;47.658;9.166;2023-04-24T14:57:21;14.80;1.00
6496;DHT22;3281;47.658;9.166;2023-04-24T14:59:48;14.50;1.00
6496;DHT22;3281;47.658;9.166;2023-04-24T15:02:15;14.10;1.00
6496;DHT22;3281;47.658;9.166;2023-04-24T15:04:42;14.00;1.00
6496;DHT22;3281;47.658;9.166;2023-04-24T15:07:08;13.90;1.00
6496;DHT22;3281;47.658;9.166;2023-04-24T15:09:35;13.60;1.00
6496;DHT22;3281;47.658;9.166;2023-04-24T15:12:01;13.50;1.00
6496;DHT22;3281;47.658;9.166;2023-04-24T15:14:30;13.40;1.00
6496;DHT22;3281;47.658;9.166;2023-04-24T15:16:56;13.20;1.00
6496;DHT22;3281;47.658;9.166;2023-04-24T15:19:23;13.20;1.00
6496;DHT22;3281;47.658;9.166;2023-04-24T15:21:50;13.20;1.00
6496;DHT22;3281;47.658;9.166;2023-04-24T15:24:16;13.10;1.00
6496;DHT22;3281;47.658;9.166;2023-04-24T15:26:43;13.10;1.00
6496;DHT22;3281;47.658;9.166;2023-04-24T15:29:10;13.20;1.00
6496;DHT22;3281;47.658;9.166;2023-04-24T15:31:38;13.80;1.00
6496;DHT22;3281;47.658;9.166;2023-04-24T15:34:05;14.30;1.00
6496;DHT22;3281;47.658;9.166;2023-04-24T15:36:32;14.80;1.00
6496;DHT22;3281;47.658;9.166;2023-04-24T15:38:59;14.90;1.00
6496;DHT22;3281;47.658;9.166;2023-04-24T15:41:27;14.90;1.00
6496;DHT22;3281;47.658;9.166;2023-04-24T15:43:53;15.00;1.00
6496;DHT22;3281;47.658;9.166;2023-04-24T15:46:20;14.90;1.00
6496;DHT22;3281;47.658;9.166;2023-04-24T15:48:48;14.80;1.00
6496;DHT22;3281;47.658;9.166;2023-04-24T15:51:15;15.00;1.00
6496;DHT22;3281;47.658;9.166;2023-04-24T15:53:41;15.00;1.00
6496;DHT22;3281;47.658;9.166;2023-04-24T15:56:09;15.00;1.00
6496;DHT22;3281;47.658;9.166;2023-04-24T15:58:35;15.00;1.00
6496;DHT22;3281;47.658;9.166;2023-04-24T16:01:02;14.60;1.00
6496;DHT22;3281;47.658;9.166;2023-04-24T16:03:29;14.50;1.00
6496;DHT22;3281;47.658;9.166;2023-04-24T16:05:57;14.70;1.00
6496;DHT22;3281;47.658;9.166;2023-04-24T16:08:24;14.60;1.00
6496;DHT22;3281;47.658;9.166;2023-04-24T16:10:51;14.60;1.00
6496;DHT22;3281;47.658;9.166;2023-04-24T16:13:18;14.40;1.00
6496;DHT22;3281;47.658;9.166;2023-04-24T16:15:45;14.20;1.00
6496;DHT22;3281;47.658;9.166;2023-04-24T16:18:12;14.40;1.00